Time;durP1;ratioP1;P1;durP2;ratioP2;P2;SDS_P1;SDS_P2;PMS_P1;PMS_P2;Temp;Humidity;BMP_temperature;BMP_pressure;BME280_temperature;BME280_humidity;BME280_pressure;Samples;Min_cycle;Max_cycle;Signal;HPM_P1;HPM_P2
2022/03/08 00:00:07;;;;;;;12.00;6.27;;;;;;;;;;5047616;28;20315;-63
2022/03/08 00:02:33;;;;;;;12.10;6.27;;;;;;;;;;5047900;28;20392;-63
2022/03/08 00:04:59;;;;;;;13.37;6.70;;;;;;;;;;5047250;28;20311;-63
2022/03/08 00:07:25;;;;;;;13.27;6.70;;;;;;;;;;5046189;28;20297;-63
2022/03/08 00:09:51;;;;;;;15.70;6.83;;;;;;;;;;5047552;28;20053;-63
2022/03/08 00:12:17;;;;;;;11.33;6.67;;;;;;;;;;5047029;28;20360;-63
2022/03/08 00:14:43;;;;;;;13.77;8.63;;;;;;;;;;5047280;28;20648;-63
2022/03/08 00:17:09;;;;;;;13.27;6.70;;;;;;;;;;5047412;28;20061;-63
2022/03/08 00:19:35;;;;;;;14.90;7.27;;;;;;;;;;5046131;28;20052;-64
2022/03/08 00:22:01;;;;;;;13.70;7.33;;;;;;;;;;5047356;28;20360;-63
2022/03/08 00:24:27;;;;;;;15.43;8.63;;;;;;;;;;5047237;28;20495;-63
2022/03/08 00:26:53;;;;;;;13.67;7.33;;;;;;;;;;5047166;28;20287;-64
2022/03/08 00:29:19;;;;;;;17.80;8.13;;;;;;;;;;5046844;28;20075;-63
2022/03/08 00:31:45;;;;;;;17.87;7.40;;;;;;;;;;5045296;28;20260;-63
2022/03/08 00:34:11;;;;;;;12.80;6.77;;;;;;;;;;5027788;28;20065;-63
2022/03/08 00:36:37;;;;;;;12.77;6.53;;;;;;;;;;5043153;28;20292;-63
2022/03/08 00:39:04;;;;;;;13.80;8.33;;;;;;;;;;5047904;28;20283;-63
2022/03/08 00:41:30;;;;;;;13.00;7.40;;;;;;;;;;5049947;28;20307;-63
2022/03/08 00:43:56;;;;;;;13.57;7.80;;;;;;;;;;5051734;28;20286;-63
2022/03/08 00:46:22;;;;;;;13.50;7.43;;;;;;;;;;5052197;28;20446;-63
2022/03/08 00:48:48;;;;;;;17.60;8.83;;;;;;;;;;5051517;28;20045;-64
2022/03/08 00:51:14;;;;;;;15.80;8.17;;;;;;;;;;5051364;28;20406;-64
2022/03/08 00:53:40;;;;;;;16.97;8.73;;;;;;;;;;5051284;28;20037;-63
2022/03/08 00:56:06;;;;;;;14.53;8.63;;;;;;;;;;5051718;28;20290;-63
2022/03/08 00:58:34;;;;;;;17.80;8.10;;;;;;;;;;5051539;28;20052;-63
2022/03/08 01:01:00;;;;;;;16.47;9.20;;;;;;;;;;5051113;28;20287;-63
2022/03/08 01:03:26;;;;;;;17.43;8.47;;;;;;;;;;5050912;28;20295;-63
2022/03/08 01:05:52;;;;;;;14.50;7.90;;;;;;;;;;5051016;28;20386;-63
2022/03/08 01:08:18;;;;;;;20.27;8.73;;;;;;;;;;5051348;28;20106;-63
2022/03/08 01:10:44;;;;;;;17.80;9.00;;;;;;;;;;5050768;28;20280;-63
2022/03/08 01:13:10;;;;;;;16.70;8.33;;;;;;;;;;5051234;28;20049;-63
2022/03/08 01:15:36;;;;;;;16.83;8.27;;;;;;;;;;5050968;28;20049;-63
2022/03/08 01:18:03;;;;;;;14.77;8.93;;;;;;;;;;5039316;28;20395;-63
2022/03/08 01:20:29;;;;;;;18.93;10.20;;;;;;;;;;5046970;28;20295;-63
2022/03/08 01:22:55;;;;;;;18.17;9.90;;;;;;;;;;5050587;28;20333;-63
2022/03/08 01:25:22;;;;;;;16.53;10.17;;;;;;;;;;5050586;28;20292;-63
2022/03/08 01:27:48;;;;;;;17.13;9.07;;;;;;;;;;5050850;28;20370;-63
2022/03/08 01:30:15;;;;;;;15.90;8.93;;;;;;;;;;5050841;28;20292;-63
2022/03/08 01:32:41;;;;;;;18.23;9.60;;;;;;;;;;5049681;28;20308;-63
2022/03/08 01:35:09;;;;;;;19.00;10.43;;;;;;;;;;5050022;28;20374;-63
2022/03/08 01:37:35;;;;;;;24.60;9.77;;;;;;;;;;5050879;28;20280;-63
2022/03/08 01:40:01;;;;;;;18.33;9.87;;;;;;;;;;5050407;28;20287;-63
2022/03/08 01:42:27;;;;;;;18.73;10.40;;;;;;;;;;5050410;28;20674;-63
2022/03/08 01:44:54;;;;;;;19.27;10.27;;;;;;;;;;5050254;28;20285;-63
2022/03/08 01:47:21;;;;;;;21.23;10.87;;;;;;;;;;5050402;28;20122;-63
2022/03/08 01:49:48;;;;;;;19.73;10.23;;;;;;;;;;5049823;28;20398;-63
2022/03/08 01:52:15;;;;;;;19.37;10.33;;;;;;;;;;5050286;28;20284;-63
2022/03/08 01:54:41;;;;;;;19.73;10.67;;;;;;;;;;5049718;28;20291;-63
2022/03/08 01:57:08;;;;;;;22.87;10.87;;;;;;;;;;5050215;28;20284;-63
2022/03/08 01:59:34;;;;;;;17.77;10.10;;;;;;;;;;5050321;28;20309;-63
2022/03/08 02:02:01;;;;;;;19.80;10.00;;;;;;;;;;5049991;28;20805;-63
2022/03/08 02:04:27;;;;;;;20.30;10.93;;;;;;;;;;5050320;28;20796;-63
2022/03/08 02:06:53;;;;;;;20.07;9.87;;;;;;;;;;5050012;28;20291;-64
2022/03/08 02:09:19;;;;;;;19.20;9.80;;;;;;;;;;5049446;28;20774;-63
2022/03/08 02:11:46;;;;;;;20.67;10.60;;;;;;;;;;5049892;28;20716;-63
2022/03/08 02:14:14;;;;;;;19.10;10.17;;;;;;;;;;5049640;28;20290;-63
2022/03/08 02:16:40;;;;;;;19.33;9.93;;;;;;;;;;5049750;28;20623;-63
2022/03/08 02:19:06;;;;;;;17.67;9.90;;;;;;;;;;5049237;28;20294;-63
2022/03/08 02:21:35;;;;;;;19.23;10.57;;;;;;;;;;5049782;28;20139;-63
2022/03/08 02:24:01;;;;;;;19.17;10.93;;;;;;;;;;5049940;28;20052;-63
2022/03/08 02:26:28;;;;;;;19.10;10.77;;;;;;;;;;5049841;28;20868;-63
2022/03/08 02:28:53;;;;;;;20.43;11.67;;;;;;;;;;5049072;28;20323;-63
2022/03/08 02:31:19;;;;;;;18.63;10.43;;;;;;;;;;5049608;28;20327;-63
2022/03/08 02:33:45;;;;;;;18.20;10.93;;;;;;;;;;5049350;28;20060;-63
2022/03/08 02:36:11;;;;;;;17.93;11.33;;;;;;;;;;5049129;28;20048;-63
2022/03/08 02:38:38;;;;;;;20.57;11.40;;;;;;;;;;5049755;28;20102;-63
2022/03/08 02:41:04;;;;;;;21.07;11.20;;;;;;;;;;5048999;28;20291;-63
2022/03/08 02:43:30;;;;;;;21.60;11.40;;;;;;;;;;5049022;28;20275;-63
2022/03/08 02:45:56;;;;;;;20.93;11.17;;;;;;;;;;5049544;28;20475;-63
2022/03/08 02:48:25;;;;;;;23.50;12.73;;;;;;;;;;5049184;28;20291;-63
2022/03/08 02:50:51;;;;;;;23.30;11.53;;;;;;;;;;5048965;28;20947;-63
2022/03/08 02:53:17;;;;;;;20.73;11.40;;;;;;;;;;5049243;28;20311;-63
2022/03/08 02:55:43;;;;;;;22.20;11.87;;;;;;;;;;5048696;28;20279;-63
2022/03/08 02:58:09;;;;;;;19.37;11.93;;;;;;;;;;5048970;28;20344;-63
2022/03/08 03:00:36;;;;;;;20.57;11.63;;;;;;;;;;5048964;28;20376;-63
2022/03/08 03:03:02;;;;;;;24.67;13.90;;;;;;;;;;5048515;28;20821;-63
2022/03/08 03:05:29;;;;;;;19.63;11.43;;;;;;;;;;5048948;28;20838;-63
2022/03/08 03:07:55;;;;;;;24.73;13.53;;;;;;;;;;5049308;28;20295;-63
2022/03/08 03:10:22;;;;;;;22.97;12.67;;;;;;;;;;5048971;28;20287;-63
2022/03/08 03:12:48;;;;;;;21.03;12.23;;;;;;;;;;5048782;28;21333;-63
2022/03/08 03:15:15;;;;;;;22.73;12.60;;;;;;;;;;5048748;28;20816;-63
2022/03/08 03:17:41;;;;;;;19.80;12.17;;;;;;;;;;5048752;28;20671;-63
2022/03/08 03:20:08;;;;;;;21.80;12.47;;;;;;;;;;5049040;28;20880;-63
2022/03/08 03:22:35;;;;;;;19.63;12.03;;;;;;;;;;5048390;28;20398;-63
2022/03/08 03:25:01;;;;;;;25.43;14.00;;;;;;;;;;5048706;28;20295;-63
2022/03/08 03:27:27;;;;;;;21.00;12.57;;;;;;;;;;5048671;28;20698;-63
2022/03/08 03:29:53;;;;;;;21.93;12.57;;;;;;;;;;5048603;28;20319;-63
2022/03/08 03:32:19;;;;;;;23.83;13.40;;;;;;;;;;5048362;28;20366;-63
2022/03/08 03:34:46;;;;;;;28.63;13.87;;;;;;;;;;5048725;28;20294;-63
2022/03/08 03:37:12;;;;;;;26.43;13.40;;;;;;;;;;5048645;28;20344;-63
2022/03/08 03:39:38;;;;;;;25.73;12.67;;;;;;;;;;5048770;28;20284;-63
2022/03/08 03:42:04;;;;;;;21.10;13.13;;;;;;;;;;5048331;28;20353;-63
2022/03/08 03:44:30;;;;;;;25.43;12.40;;;;;;;;;;5048286;28;20084;-63
2022/03/08 03:46:56;;;;;;;23.97;13.03;;;;;;;;;;5048736;28;20287;-63
2022/03/08 03:49:22;;;;;;;27.47;13.80;;;;;;;;;;5048518;28;20356;-63
2022/03/08 03:51:51;;;;;;;21.30;14.17;;;;;;;;;;5048877;28;20288;-64
2022/03/08 03:54:18;;;;;;;25.27;13.13;;;;;;;;;;5048203;28;20638;-63
2022/03/08 03:56:44;;;;;;;25.43;13.00;;;;;;;;;;5048406;28;20288;-63
2022/03/08 03:59:10;;;;;;;26.67;12.60;;;;;;;;;;5048127;28;20317;-63
2022/03/08 04:01:36;;;;;;;24.87;14.13;;;;;;;;;;5036373;28;20307;-63
2022/03/08 04:04:02;;;;;;;24.97;13.80;;;;;;;;;;5028346;28;20277;-63
2022/03/08 04:06:28;;;;;;;24.63;12.27;;;;;;;;;;5028478;28;20507;-63
2022/03/08 04:08:54;;;;;;;25.60;12.77;;;;;;;;;;5028979;28;20373;-63
2022/03/08 04:11:20;;;;;;;25.60;14.40;;;;;;;;;;5028403;28;20175;-63
2022/03/08 04:13:46;;;;;;;21.20;12.73;;;;;;;;;;5036473;28;21139;-63
2022/03/08 04:16:12;;;;;;;24.93;13.50;;;;;;;;;;5050079;28;20048;-63
2022/03/08 04:18:38;;;;;;;22.43;12.70;;;;;;;;;;5053785;28;20507;-63
2022/03/08 04:21:04;;;;;;;23.67;12.70;;;;;;;;;;5071935;28;20048;-63
2022/03/08 04:23:30;;;;;;;20.70;12.10;;;;;;;;;;5059885;28;20789;-63
2022/03/08 04:25:56;;;;;;;19.93;12.17;;;;;;;;;;5062226;28;20369;-63
2022/03/08 04:28:22;;;;;;;27.07;15.00;;;;;;;;;;5072525;28;20299;-63
2022/03/08 04:30:48;;;;;;;21.67;12.67;;;;;;;;;;5069254;28;20052;-63
2022/03/08 04:33:14;;;;;;;24.73;13.97;;;;;;;;;;5051805;28;20284;-63
2022/03/08 04:35:40;;;;;;;24.53;14.07;;;;;;;;;;5052162;28;20315;-63
2022/03/08 04:38:06;;;;;;;24.87;13.63;;;;;;;;;;5050624;28;20280;-63
2022/03/08 04:40:32;;;;;;;26.10;13.30;;;;;;;;;;5052039;28;20287;-63
2022/03/08 04:42:59;;;;;;;28.00;14.83;;;;;;;;;;5051925;28;20318;-63
2022/03/08 04:45:25;;;;;;;25.37;13.87;;;;;;;;;;5052059;28;20295;-63
2022/03/08 04:47:51;;;;;;;26.27;14.20;;;;;;;;;;5051191;28;20295;-63
2022/03/08 04:50:17;;;;;;;25.17;13.73;;;;;;;;;;5051783;28;20290;-63
2022/03/08 04:52:44;;;;;;;23.33;13.27;;;;;;;;;;5060223;28;20295;-63
2022/03/08 04:55:10;;;;;;;24.57;13.93;;;;;;;;;;5070639;28;20287;-63
2022/03/08 04:57:37;;;;;;;27.10;15.57;;;;;;;;;;5054542;28;20378;-63
2022/03/08 05:00:07;;;;;;;29.57;15.20;;;;;;;;;;5052012;28;20288;-63
2022/03/08 05:02:33;;;;;;;23.77;14.47;;;;;;;;;;5062462;28;20405;-63
2022/03/08 05:04:59;;;;;;;24.03;13.80;;;;;;;;;;5071734;28;20294;-63
2022/03/08 05:07:26;;;;;;;28.27;15.63;;;;;;;;;;5071454;28;20762;-63
2022/03/08 05:09:52;;;;;;;27.20;14.67;;;;;;;;;;5071435;28;20290;-63
2022/03/08 05:12:18;;;;;;;26.07;14.47;;;;;;;;;;5071197;28;20789;-63
2022/03/08 05:14:44;;;;;;;24.73;14.90;;;;;;;;;;5054243;28;20287;-63
2022/03/08 05:17:10;;;;;;;26.40;14.27;;;;;;;;;;5051046;28;20276;-63
2022/03/08 05:19:36;;;;;;;28.47;15.00;;;;;;;;;;5051035;28;20284;-63
2022/03/08 05:22:02;;;;;;;33.10;15.50;;;;;;;;;;5050990;28;20714;-63
2022/03/08 05:24:28;;;;;;;24.27;13.67;;;;;;;;;;5051077;28;20382;-63
2022/03/08 05:26:54;;;;;;;26.07;14.30;;;;;;;;;;5050646;28;20375;-63
2022/03/08 05:29:20;;;;;;;27.10;15.83;;;;;;;;;;5062150;28;20302;-63
2022/03/08 05:31:46;;;;;;;27.93;13.83;;;;;;;;;;5064196;28;20296;-63
2022/03/08 05:34:14;;;;;;;24.10;14.33;;;;;;;;;;5052156;28;20360;-63
2022/03/08 05:36:40;;;;;;;28.83;15.23;;;;;;;;;;5050705;28;20288;-63
2022/03/08 05:39:07;;;;;;;24.50;13.77;;;;;;;;;;5050879;28;20805;-63
2022/03/08 05:41:34;;;;;;;23.90;14.83;;;;;;;;;;5050682;28;20307;-63
2022/03/08 05:44:00;;;;;;;25.73;13.97;;;;;;;;;;5056203;28;20292;-63
2022/03/08 05:46:26;;;;;;;22.27;14.50;;;;;;;;;;5050974;28;20295;-63
2022/03/08 05:48:52;;;;;;;26.60;15.03;;;;;;;;;;5050680;28;20279;-63
2022/03/08 05:51:18;;;;;;;26.10;16.00;;;;;;;;;;5050247;28;20366;-63
2022/03/08 05:53:44;;;;;;;26.03;14.67;;;;;;;;;;5067927;28;20286;-63
2022/03/08 05:56:11;;;;;;;26.97;14.27;;;;;;;;;;5070521;28;20275;-63
2022/03/08 05:58:37;;;;;;;26.43;14.47;;;;;;;;;;5058890;28;20931;-63
2022/03/08 06:01:03;;;;;;;22.40;13.07;;;;;;;;;;5050579;28;20295;-63
2022/03/08 06:03:29;;;;;;;26.47;14.17;;;;;;;;;;5058971;28;20839;-63
2022/03/08 06:05:55;;;;;;;24.90;13.33;;;;;;;;;;5054560;28;20340;-63
2022/03/08 06:08:21;;;;;;;24.07;13.13;;;;;;;;;;5049982;28;20350;-63
2022/03/08 06:10:47;;;;;;;25.43;13.70;;;;;;;;;;5050816;28;20306;-63
2022/03/08 06:13:14;;;;;;;22.37;12.80;;;;;;;;;;5061067;28;20290;-63
2022/03/08 06:15:40;;;;;;;24.27;14.37;;;;;;;;;;5069761;28;20329;-63
2022/03/08 06:18:06;;;;;;;21.77;13.17;;;;;;;;;;5069946;28;20287;-63
2022/03/08 06:20:32;;;;;;;22.80;13.97;;;;;;;;;;5057911;28;20300;-63
2022/03/08 06:22:58;;;;;;;20.47;13.40;;;;;;;;;;5066109;28;20350;-63
2022/03/08 06:25:25;;;;;;;23.57;14.80;;;;;;;;;;5048865;28;20295;-63
2022/03/08 06:27:51;;;;;;;22.33;13.87;;;;;;;;;;5049796;28;20327;-63
2022/03/08 06:30:17;;;;;;;25.27;13.87;;;;;;;;;;5058599;28;20292;-63
2022/03/08 06:32:43;;;;;;;21.70;12.93;;;;;;;;;;5049793;28;20295;-63
2022/03/08 06:35:09;;;;;;;27.63;12.93;;;;;;;;;;5049414;28;20295;-63
2022/03/08 06:37:35;;;;;;;20.13;11.80;;;;;;;;;;5049428;28;20382;-63
2022/03/08 06:40:01;;;;;;;24.30;13.57;;;;;;;;;;5048947;28;20315;-63
2022/03/08 06:42:27;;;;;;;22.27;12.57;;;;;;;;;;5049664;28;20304;-63
2022/03/08 06:44:53;;;;;;;21.63;12.83;;;;;;;;;;5068288;28;20286;-63
2022/03/08 06:47:19;;;;;;;21.90;13.77;;;;;;;;;;5068424;28;20429;-63
2022/03/08 06:49:45;;;;;;;19.20;12.27;;;;;;;;;;5068561;28;20369;-63
2022/03/08 06:52:12;;;;;;;19.57;13.00;;;;;;;;;;5068354;28;20056;-63
2022/03/08 06:54:40;;;;;;;19.53;12.00;;;;;;;;;;5069267;28;20345;-63
2022/03/08 06:57:06;;;;;;;20.27;12.40;;;;;;;;;;5064562;28;20288;-63
2022/03/08 06:59:32;;;;;;;23.70;13.07;;;;;;;;;;5049235;28;20284;-63
2022/03/08 07:01:58;;;;;;;20.57;12.70;;;;;;;;;;5049673;28;20891;-63
2022/03/08 07:04:25;;;;;;;18.67;11.53;;;;;;;;;;5049130;28;20724;-63
2022/03/08 07:06:51;;;;;;;19.97;12.77;;;;;;;;;;5049079;28;20284;-63
2022/03/08 07:09:17;;;;;;;20.43;12.30;;;;;;;;;;5049097;28;20287;-63
2022/03/08 07:11:43;;;;;;;18.87;12.53;;;;;;;;;;5049821;28;20298;-63
2022/03/08 07:14:15;;;;;;;18.20;12.30;;;;;;;;;;5049762;28;20291;-63
2022/03/08 07:16:41;;;;;;;18.90;12.30;;;;;;;;;;5048888;28;20875;-63
2022/03/08 07:19:07;;;;;;;17.03;11.37;;;;;;;;;;5049738;28;20315;-63
2022/03/08 07:21:33;;;;;;;18.60;11.53;;;;;;;;;;5058409;28;20045;-63
2022/03/08 07:23:59;;;;;;;20.00;11.97;;;;;;;;;;5064132;28;20044;-63
2022/03/08 07:26:25;;;;;;;21.73;11.87;;;;;;;;;;5069366;28;20497;-63
2022/03/08 07:28:51;;;;;;;25.20;14.00;;;;;;;;;;5069740;28;20041;-63
2022/03/08 07:31:17;;;;;;;18.97;12.57;;;;;;;;;;5061174;28;20411;-63
2022/03/08 07:33:43;;;;;;;17.10;10.27;;;;;;;;;;5049106;28;20057;-63
2022/03/08 07:36:09;;;;;;;18.13;11.17;;;;;;;;;;5051342;28;20288;-63
2022/03/08 07:38:35;;;;;;;15.57;10.43;;;;;;;;;;5049748;28;20045;-63
2022/03/08 07:41:04;;;;;;;18.40;10.23;;;;;;;;;;5048342;28;20686;-63
2022/03/08 07:43:31;;;;;;;18.63;10.17;;;;;;;;;;5049565;28;20692;-63
2022/03/08 07:45:57;;;;;;;15.50;10.57;;;;;;;;;;5049329;28;20299;-63
2022/03/08 07:48:23;;;;;;;16.53;10.50;;;;;;;;;;5052714;28;20296;-63
2022/03/08 07:50:49;;;;;;;14.57;10.23;;;;;;;;;;5052347;28;20294;-63
2022/03/08 07:53:15;;;;;;;15.60;11.00;;;;;;;;;;5053256;28;20398;-64
2022/03/08 07:55:41;;;;;;;14.23;9.80;;;;;;;;;;5053499;28;20053;-64
2022/03/08 07:58:11;;;;;;;17.93;10.00;;;;;;;;;;5053609;28;20041;-64
2022/03/08 08:00:38;;;;;;;14.83;10.03;;;;;;;;;;5053770;28;20287;-64
2022/03/08 08:03:04;;;;;;;17.57;10.13;;;;;;;;;;5053131;28;20303;-64
2022/03/08 08:05:30;;;;;;;18.97;11.43;;;;;;;;;;5059045;28;20287;-64
2022/03/08 08:07:56;;;;;;;15.07;10.43;;;;;;;;;;5056358;28;20048;-63
2022/03/08 08:10:22;;;;;;;17.60;10.97;;;;;;;;;;5073197;28;20502;-63
2022/03/08 08:12:48;;;;;;;13.87;9.93;;;;;;;;;;5073250;28;20652;-64
2022/03/08 08:15:14;;;;;;;16.67;10.60;;;;;;;;;;5073198;28;20085;-64
2022/03/08 08:17:40;;;;;;;12.97;9.73;;;;;;;;;;5072357;28;20370;-64
2022/03/08 08:20:06;;;;;;;16.93;9.93;;;;;;;;;;5073303;28;20624;-64
2022/03/08 08:22:32;;;;;;;16.13;9.67;;;;;;;;;;5058289;28;20402;-64
2022/03/08 08:24:58;;;;;;;13.63;9.50;;;;;;;;;;5060101;28;20041;-64
2022/03/08 08:27:24;;;;;;;15.83;10.30;;;;;;;;;;5050012;28;20107;-64
2022/03/08 08:29:50;;;;;;;17.47;10.10;;;;;;;;;;5052422;28;20044;-64
2022/03/08 08:32:16;;;;;;;13.87;8.97;;;;;;;;;;5052777;28;20067;-63
2022/03/08 08:34:42;;;;;;;13.93;8.77;;;;;;;;;;5052219;28;20045;-64
2022/03/08 08:37:09;;;;;;;13.67;9.03;;;;;;;;;;5042180;28;20053;-64
2022/03/08 08:39:35;;;;;;;17.33;8.87;;;;;;;;;;5045948;28;20295;-64
2022/03/08 08:42:01;;;;;;;15.57;10.00;;;;;;;;;;5051342;28;20080;-64
2022/03/08 08:44:27;;;;;;;12.87;9.23;;;;;;;;;;5051898;28;20049;-64
2022/03/08 08:46:54;;;;;;;16.63;9.10;;;;;;;;;;5052176;28;20190;-64
2022/03/08 08:49:23;;;;;;;18.47;9.43;;;;;;;;;;5050998;28;20132;-64
2022/03/08 08:51:49;;;;;;;12.37;8.63;;;;;;;;;;5051614;28;20052;-64
2022/03/08 08:54:16;;;;;;;13.70;9.77;;;;;;;;;;5051981;28;20558;-64
2022/03/08 08:56:42;;;;;;;13.83;8.70;;;;;;;;;;5052158;28;20048;-63
2022/03/08 08:59:08;;;;;;;15.60;9.13;;;;;;;;;;5052119;28;20060;-64
2022/03/08 09:01:34;;;;;;;13.33;8.53;;;;;;;;;;5051294;28;20040;-64
2022/03/08 09:04:00;;;;;;;13.90;9.47;;;;;;;;;;5051833;28;20526;-63
2022/03/08 09:06:27;;;;;;;12.33;8.50;;;;;;;;;;5051967;28;20053;-64
2022/03/08 09:08:54;;;;;;;14.27;8.97;;;;;;;;;;5051167;28;20525;-64
2022/03/08 09:11:20;;;;;;;13.20;8.97;;;;;;;;;;5051489;28;20531;-64
2022/03/08 09:13:46;;;;;;;13.30;8.57;;;;;;;;;;5051893;28;20041;-64
2022/03/08 09:16:14;;;;;;;11.83;8.10;;;;;;;;;;5052097;28;20037;-64
2022/03/08 09:18:41;;;;;;;11.53;8.10;;;;;;;;;;5051996;28;20580;-64
2022/03/08 09:21:07;;;;;;;10.77;7.90;;;;;;;;;;5055704;28;20511;-64
2022/03/08 09:23:33;;;;;;;11.90;7.43;;;;;;;;;;5051527;28;20045;-64
2022/03/08 09:25:59;;;;;;;12.10;7.67;;;;;;;;;;5059480;28;20380;-64
2022/03/08 09:28:25;;;;;;;8.93;7.00;;;;;;;;;;5072229;28;20449;-64
2022/03/08 09:30:51;;;;;;;12.57;7.63;;;;;;;;;;5071661;28;20060;-64
2022/03/08 09:33:17;;;;;;;11.20;7.60;;;;;;;;;;5053902;28;20049;-64
2022/03/08 09:35:43;;;;;;;8.20;6.03;;;;;;;;;;5051573;28;20155;-64
2022/03/08 09:38:11;;;;;;;9.73;6.50;;;;;;;;;;5051717;28;20124;-64
2022/03/08 09:40:38;;;;;;;10.63;6.67;;;;;;;;;;5037140;28;20056;-64
2022/03/08 09:43:04;;;;;;;9.60;6.67;;;;;;;;;;5042540;28;20044;-64
2022/03/08 09:45:30;;;;;;;8.47;6.30;;;;;;;;;;5071159;28;20045;-64
2022/03/08 09:47:56;;;;;;;12.57;7.33;;;;;;;;;;5070580;28;20131;-64
2022/03/08 09:50:22;;;;;;;15.83;7.00;;;;;;;;;;5053579;28;20040;-64
2022/03/08 09:52:48;;;;;;;11.57;6.40;;;;;;;;;;5051046;28;20377;-64
2022/03/08 09:55:16;;;;;;;8.17;5.90;;;;;;;;;;5051474;28;20462;-64
2022/03/08 09:57:43;;;;;;;9.40;6.50;;;;;;;;;;5050809;28;20522;-64
2022/03/08 10:00:09;;;;;;;10.33;6.20;;;;;;;;;;5051413;28;20044;-64
2022/03/08 10:02:46;;;;;;;7.80;6.33;;;;;;;;;;5051008;28;20503;-64
2022/03/08 10:05:12;;;;;;;9.50;5.67;;;;;;;;;;5049377;28;20506;-64
2022/03/08 10:07:38;;;;;;;10.33;5.67;;;;;;;;;;5050856;28;20128;-64
2022/03/08 10:10:04;;;;;;;7.00;5.57;;;;;;;;;;5050988;28;20128;-64
2022/03/08 10:12:31;;;;;;;8.07;5.67;;;;;;;;;;5050534;28;20752;-64
2022/03/08 10:14:58;;;;;;;7.63;5.23;;;;;;;;;;5050474;28;20079;-64
2022/03/08 10:17:37;;;;;;;9.77;5.80;;;;;;;;;;5051039;28;20079;-64
2022/03/08 10:20:04;;;;;;;6.90;4.93;;;;;;;;;;5050803;28;20132;-64
2022/03/08 10:22:34;;;;;;;5.80;4.47;;;;;;;;;;5050319;28;20113;-64
2022/03/08 10:25:29;;;;;;;8.13;4.67;;;;;;;;;;5050278;28;20053;-64
2022/03/08 10:27:55;;;;;;;5.97;4.40;;;;;;;;;;5045720;28;20045;-64
2022/03/08 10:30:22;;;;;;;6.33;4.73;;;;;;;;;;5049820;28;20511;-64
2022/03/08 10:32:48;;;;;;;9.37;4.83;;;;;;;;;;5050458;28;20057;-64
2022/03/08 10:35:24;;;;;;;6.50;4.40;;;;;;;;;;5049883;28;20072;-64
2022/03/08 10:37:51;;;;;;;7.27;5.13;;;;;;;;;;5050595;28;20068;-64
2022/03/08 10:40:29;;;;;;;7.23;4.73;;;;;;;;;;5050074;28;20056;-65
2022/03/08 10:43:03;;;;;;;7.10;4.60;;;;;;;;;;5050071;28;20067;-64
2022/03/08 10:45:30;;;;;;;8.13;4.60;;;;;;;;;;5050509;28;20037;-64
2022/03/08 10:47:56;;;;;;;6.37;4.70;;;;;;;;;;5050089;28;20068;-64
2022/03/08 10:50:26;;;;;;;6.47;5.03;;;;;;;;;;5050462;28;20132;-64
2022/03/08 10:52:54;;;;;;;7.97;5.40;;;;;;;;;;5056630;28;20040;-64
2022/03/08 10:55:22;;;;;;;6.17;4.77;;;;;;;;;;5061478;28;20082;-64
2022/03/08 10:57:50;;;;;;;6.40;5.20;;;;;;;;;;5059209;28;20388;-64
2022/03/08 11:00:16;;;;;;;6.77;4.73;;;;;;;;;;5059022;28;20051;-64
2022/03/08 11:02:51;;;;;;;7.77;4.60;;;;;;;;;;5055392;28;20387;-64
2022/03/08 11:05:18;;;;;;;7.43;5.17;;;;;;;;;;5067138;28;20135;-65
2022/03/08 11:07:44;;;;;;;8.47;4.97;;;;;;;;;;5049993;28;20514;-65
2022/03/08 11:10:11;;;;;;;6.37;5.00;;;;;;;;;;5047563;28;20136;-64
2022/03/08 11:12:37;;;;;;;8.07;4.90;;;;;;;;;;5050211;28;20048;-64
2022/03/08 11:15:04;;;;;;;6.40;4.37;;;;;;;;;;5048436;28;20037;-64
2022/03/08 11:17:31;;;;;;;7.43;4.60;;;;;;;;;;5050231;28;20064;-64
2022/03/08 11:19:57;;;;;;;7.40;4.10;;;;;;;;;;5048559;28;20122;-64
2022/03/08 11:22:24;;;;;;;7.07;4.57;;;;;;;;;;5046628;28;20407;-64
2022/03/08 11:24:51;;;;;;;6.90;4.10;;;;;;;;;;5047590;28;20040;-64
2022/03/08 11:27:17;;;;;;;10.27;4.57;;;;;;;;;;5047873;28;20107;-64
2022/03/08 11:29:43;;;;;;;5.20;3.90;;;;;;;;;;5052128;28;20419;-64
2022/03/08 11:32:16;;;;;;;5.07;4.17;;;;;;;;;;5046090;28;20419;-64
2022/03/08 11:34:46;;;;;;;6.15;4.25;;;;;;;;;;5044130;28;20415;-64
2022/03/08 11:37:17;;;;;;;6.73;4.20;;;;;;;;;;5044192;28;20065;-64
2022/03/08 11:39:43;;;;;;;5.23;3.60;;;;;;;;;;5043977;28;20064;-64
2022/03/08 11:42:20;;;;;;;6.73;4.40;;;;;;;;;;5046679;28;20091;-64
2022/03/08 11:44:57;;;;;;;5.80;4.20;;;;;;;;;;5047051;28;20053;-64
2022/03/08 11:47:23;;;;;;;6.33;4.63;;;;;;;;;;5026135;28;20141;-64
2022/03/08 11:49:54;;;;;;;5.90;4.23;;;;;;;;;;5026700;28;20052;-64
2022/03/08 11:52:27;;;;;;;5.03;3.80;;;;;;;;;;5046172;28;20053;-64
2022/03/08 11:54:58;;;;;;;6.23;3.93;;;;;;;;;;5046545;28;20120;-64
2022/03/08 11:57:42;;;;;;;7.37;3.83;;;;;;;;;;5027063;28;20112;-64
2022/03/08 12:00:32;;;;;;;8.70;4.50;;;;;;;;;;5029473;28;20061;-64
2022/03/08 12:03:00;;;;;;;5.57;3.80;;;;;;;;;;5047140;28;20057;-64
2022/03/08 12:05:38;;;;;;;4.60;3.70;;;;;;;;;;5046129;28;20402;-65
2022/03/08 12:08:23;;;;;;;6.37;3.60;;;;;;;;;;5048261;28;20045;-64
2022/03/08 12:10:49;;;;;;;5.50;4.00;;;;;;;;;;5041534;28;20117;-64
2022/03/08 12:13:16;;;;;;;5.47;3.87;;;;;;;;;;5028057;28;20471;-64
2022/03/08 12:16:20;;;;;;;5.40;3.90;;;;;;;;;;5047894;28;20049;-64
2022/03/08 12:18:46;;;;;;;5.43;3.80;;;;;;;;;;4993411;28;20891;-64
2022/03/08 12:21:15;;;;;;;5.43;3.83;;;;;;;;;;4998879;28;20041;-64
2022/03/08 12:23:48;;;;;;;5.83;4.40;;;;;;;;;;5017336;28;20061;-64
2022/03/08 12:26:25;;;;;;;5.45;3.60;;;;;;;;;;5047976;28;20107;-64
2022/03/08 12:29:10;;;;;;;5.67;4.33;;;;;;;;;;5047078;28;20048;-64
2022/03/08 12:31:54;;;;;;;6.33;3.80;;;;;;;;;;5045895;28;20130;-64
2022/03/08 12:34:42;;;;;;;4.73;3.50;;;;;;;;;;5046768;28;20053;-64
2022/03/08 12:37:10;;;;;;;6.03;3.50;;;;;;;;;;5048723;28;20090;-64
2022/03/08 12:39:48;;;;;;;6.30;3.97;;;;;;;;;;5051018;28;20513;-64
2022/03/08 12:42:23;;;;;;;4.23;3.30;;;;;;;;;;5051683;28;20049;-64
2022/03/08 12:44:52;;;;;;;5.77;4.20;;;;;;;;;;5050530;28;20103;-64
2022/03/08 12:47:19;;;;;;;4.87;3.27;;;;;;;;;;5050584;28;20094;-65
2022/03/08 12:49:46;;;;;;;4.97;3.00;;;;;;;;;;5051417;28;20495;-64
2022/03/08 12:52:13;;;;;;;4.77;3.03;;;;;;;;;;5050562;28;20111;-64
2022/03/08 12:54:40;;;;;;;5.23;2.70;;;;;;;;;;5050015;28;20041;-64
2022/03/08 12:57:06;;;;;;;3.50;2.67;;;;;;;;;;5051019;28;20882;-64
2022/03/08 12:59:32;;;;;;;6.73;3.17;;;;;;;;;;5050825;28;20107;-64
2022/03/08 13:02:08;;;;;;;4.00;2.57;;;;;;;;;;5050563;28;20056;-64
2022/03/08 13:04:34;;;;;;;7.37;3.00;;;;;;;;;;5051073;28;20045;-64
2022/03/08 13:07:10;;;;;;;4.10;2.80;;;;;;;;;;5049927;28;20407;-64
2022/03/08 13:09:49;;;;;;;4.50;3.00;;;;;;;;;;5051168;28;20483;-64
2022/03/08 13:12:20;;;;;;;4.13;3.17;;;;;;;;;;5047729;28;20044;-64
2022/03/08 13:15:05;;;;;;;6.80;3.20;;;;;;;;;;5049980;28;20052;-64
2022/03/08 13:17:31;;;;;;;6.17;3.07;;;;;;;;;;5041382;28;20049;-64
2022/03/08 13:19:57;;;;;;;4.07;3.17;;;;;;;;;;5050194;28;20049;-64
2022/03/08 13:22:23;;;;;;;4.20;2.73;;;;;;;;;;5050359;28;20081;-64
2022/03/08 13:25:08;;;;;;;6.20;2.83;;;;;;;;;;5050676;28;20101;-64
2022/03/08 13:27:53;;;;;;;6.30;3.03;;;;;;;;;;5049672;28;20045;-64
2022/03/08 13:30:20;;;;;;;4.80;3.40;;;;;;;;;;5049539;28;20045;-64
2022/03/08 13:32:46;;;;;;;4.80;2.70;;;;;;;;;;5049339;28;20423;-64
2022/03/08 13:35:12;;;;;;;5.97;3.07;;;;;;;;;;5050788;28;20400;-64
2022/03/08 13:37:49;;;;;;;6.10;3.43;;;;;;;;;;5048621;28;20044;-65
2022/03/08 13:40:25;;;;;;;5.73;3.10;;;;;;;;;;5049326;28;20586;-64
2022/03/08 13:42:51;;;;;;;5.17;3.07;;;;;;;;;;5049857;28;20102;-64
2022/03/08 13:45:17;;;;;;;5.67;3.30;;;;;;;;;;5050207;28;20472;-64
2022/03/08 13:47:44;;;;;;;4.13;2.90;;;;;;;;;;5040980;28;20064;-64
2022/03/08 13:50:10;;;;;;;4.97;3.30;;;;;;;;;;5050603;28;20052;-65
2022/03/08 13:52:36;;;;;;;5.70;2.90;;;;;;;;;;5049350;28;20045;-64
2022/03/08 13:55:02;;;;;;;5.63;3.00;;;;;;;;;;5049744;28;20045;-64
2022/03/08 13:57:28;;;;;;;5.63;3.33;;;;;;;;;;5049727;28;20048;-64
2022/03/08 13:59:54;;;;;;;3.13;2.43;;;;;;;;;;5048867;28;20053;-64
2022/03/08 14:02:21;;;;;;;5.90;3.90;;;;;;;;;;5050074;28;20051;-64
2022/03/08 14:04:47;;;;;;;5.33;3.60;;;;;;;;;;5049355;28;20049;-64
2022/03/08 14:07:19;;;;;;;3.77;2.63;;;;;;;;;;5049091;28;20049;-64
2022/03/08 14:09:57;;;;;;;5.97;2.97;;;;;;;;;;5049352;28;20045;-64
2022/03/08 14:12:23;;;;;;;4.67;3.10;;;;;;;;;;5049131;28;20049;-64
2022/03/08 14:15:01;;;;;;;6.50;3.03;;;;;;;;;;5049563;28;20037;-64
2022/03/08 14:17:30;;;;;;;5.50;2.87;;;;;;;;;;5048313;28;20096;-64
2022/03/08 14:19:57;;;;;;;3.43;2.50;;;;;;;;;;5049601;28;20053;-64
2022/03/08 14:22:23;;;;;;;5.77;2.93;;;;;;;;;;5049094;28;20053;-64
2022/03/08 14:25:03;;;;;;;6.60;3.10;;;;;;;;;;5049471;28;20124;-64
2022/03/08 14:27:30;;;;;;;4.80;3.00;;;;;;;;;;5048585;28;20044;-64
2022/03/08 14:30:06;;;;;;;5.90;3.07;;;;;;;;;;5048769;28;20057;-64